sensor_id;sensor_type;location;lat;lon;timestamp;P1;durP1;ratioP1;P2;durP2;ratioP2
66923;SDS011;53835;47.984;7.844;2022-07-29T00:00:24;5.50;;;4.60;;
66923;SDS011;53835;47.984;7.844;2022-07-29T00:02:51;6.43;;;4.70;;
66923;SDS011;53835;47.984;7.844;2022-07-29T00:05:18;5.40;;;4.90;;
66923;SDS011;53835;47.984;7.844;2022-07-29T00:07:46;5.63;;;5.00;;
66923;SDS011;53835;47.984;7.844;2022-07-29T00:10:13;5.80;;;5.17;;
66923;SDS011;53835;47.984;7.844;2022-07-29T00:12:40;5.60;;;4.50;;
66923;SDS011;53835;47.984;7.844;2022-07-29T00:15:08;6.33;;;4.80;;
66923;SDS011;53835;47.984;7.844;2022-07-29T00:17:35;5.70;;;5.20;;
66923;SDS011;53835;47.984;7.844;2022-07-29T00:20:02;5.67;;;5.13;;
66923;SDS011;53835;47.984;7.844;2022-07-29T00:22:30;5.33;;;4.70;;
66923;SDS011;53835;47.984;7.844;2022-07-29T00:24:57;6.23;;;5.23;;
66923;SDS011;53835;47.984;7.844;2022-07-29T00:27:24;5.73;;;4.80;;
66923;SDS011;53835;47.984;7.844;2022-07-29T00:29:52;5.17;;;4.67;;
66923;SDS011;53835;47.984;7.844;2022-07-29T00:32:19;6.50;;;5.17;;
66923;SDS011;53835;47.984;7.844;2022-07-29T00:34:46;6.53;;;5.40;;
66923;SDS011;53835;47.984;7.844;2022-07-29T00:37:32;7.00;;;5.37;;
66923;SDS011;53835;47.984;7.844;2022-07-29T00:39:59;6.07;;;5.47;;
66923;SDS011;53835;47.984;7.844;2022-07-29T00:42:26;5.33;;;4.83;;
66923;SDS011;53835;47.984;7.844;2022-07-29T00:44:53;5.10;;;4.60;;
66923;SDS011;53835;47.984;7.844;2022-07-29T00:47:21;5.73;;;4.80;;
66923;SDS011;53835;47.984;7.844;2022-07-29T00:49:48;5.27;;;4.87;;
66923;SDS011;53835;47.984;7.844;2022-07-29T00:52:15;5.40;;;4.90;;
66923;SDS011;53835;47.984;7.844;2022-07-29T00:54:43;6.70;;;4.87;;
66923;SDS011;53835;47.984;7.844;2022-07-29T00:57:10;7.07;;;5.27;;
66923;SDS011;53835;47.984;7.844;2022-07-29T00:59:38;5.20;;;4.70;;
66923;SDS011;53835;47.984;7.844;2022-07-29T01:02:05;6.40;;;4.80;;
66923;SDS011;53835;47.984;7.844;2022-07-29T01:04:32;6.70;;;5.07;;
66923;SDS011;53835;47.984;7.844;2022-07-29T01:07:03;5.50;;;4.70;;
66923;SDS011;53835;47.984;7.844;2022-07-29T01:09:31;5.33;;;4.50;;
66923;SDS011;53835;47.984;7.844;2022-07-29T01:11:59;6.97;;;4.57;;
66923;SDS011;53835;47.984;7.844;2022-07-29T01:14:27;5.30;;;4.47;;
66923;SDS011;53835;47.984;7.844;2022-07-29T01:16:59;6.27;;;4.37;;
66923;SDS011;53835;47.984;7.844;2022-07-29T01:22:25;5.57;;;5.07;;
66923;SDS011;53835;47.984;7.844;2022-07-29T01:30:22;6.03;;;5.13;;
66923;SDS011;53835;47.984;7.844;2022-07-29T01:32:50;4.70;;;4.30;;
66923;SDS011;53835;47.984;7.844;2022-07-29T01:35:19;5.60;;;4.77;;
66923;SDS011;53835;47.984;7.844;2022-07-29T01:40:43;5.17;;;4.53;;
66923;SDS011;53835;47.984;7.844;2022-07-29T01:43:10;9.17;;;4.67;;
66923;SDS011;53835;47.984;7.844;2022-07-29T01:48:15;5.27;;;4.70;;
66923;SDS011;53835;47.984;7.844;2022-07-29T01:53:28;5.07;;;4.57;;
66923;SDS011;53835;47.984;7.844;2022-07-29T01:55:50;5.07;;;4.57;;
66923;SDS011;53835;47.984;7.844;2022-07-29T01:58:19;7.90;;;4.47;;
66923;SDS011;53835;47.984;7.844;2022-07-29T02:00:47;5.73;;;5.00;;
66923;SDS011;53835;47.984;7.844;2022-07-29T02:03:15;6.17;;;5.10;;
66923;SDS011;53835;47.984;7.844;2022-07-29T02:05:45;5.20;;;4.70;;
66923;SDS011;53835;47.984;7.844;2022-07-29T02:08:13;6.13;;;4.90;;
66923;SDS011;53835;47.984;7.844;2022-07-29T02:10:42;6.03;;;4.87;;
66923;SDS011;53835;47.984;7.844;2022-07-29T02:13:11;5.93;;;4.97;;
66923;SDS011;53835;47.984;7.844;2022-07-29T02:15:38;8.93;;;4.90;;
66923;SDS011;53835;47.984;7.844;2022-07-29T02:18:08;6.67;;;4.90;;
66923;SDS011;53835;47.984;7.844;2022-07-29T02:20:36;5.90;;;5.23;;
66923;SDS011;53835;47.984;7.844;2022-07-29T02:23:04;5.70;;;5.20;;
66923;SDS011;53835;47.984;7.844;2022-07-29T02:25:33;5.93;;;4.70;;
66923;SDS011;53835;47.984;7.844;2022-07-29T02:28:00;5.30;;;4.80;;
66923;SDS011;53835;47.984;7.844;2022-07-29T02:30:29;4.93;;;4.40;;
66923;SDS011;53835;47.984;7.844;2022-07-29T02:32:57;6.97;;;4.60;;
66923;SDS011;53835;47.984;7.844;2022-07-29T02:35:24;4.97;;;4.47;;
66923;SDS011;53835;47.984;7.844;2022-07-29T02:37:52;5.63;;;4.50;;
66923;SDS011;53835;47.984;7.844;2022-07-29T02:40:38;6.07;;;4.30;;
66923;SDS011;53835;47.984;7.844;2022-07-29T02:43:06;5.37;;;4.17;;
66923;SDS011;53835;47.984;7.844;2022-07-29T02:45:35;5.77;;;4.80;;
66923;SDS011;53835;47.984;7.844;2022-07-29T02:48:05;5.27;;;4.70;;
66923;SDS011;53835;47.984;7.844;2022-07-29T02:50:35;6.03;;;5.23;;
66923;SDS011;53835;47.984;7.844;2022-07-29T02:53:13;5.23;;;4.67;;
66923;SDS011;53835;47.984;7.844;2022-07-29T02:55:43;5.13;;;4.57;;
66923;SDS011;53835;47.984;7.844;2022-07-29T03:00:37;7.10;;;5.27;;
66923;SDS011;53835;47.984;7.844;2022-07-29T03:03:07;6.60;;;4.83;;
66923;SDS011;53835;47.984;7.844;2022-07-29T03:05:34;5.47;;;4.50;;
66923;SDS011;53835;47.984;7.844;2022-07-29T03:08:03;6.27;;;5.13;;
66923;SDS011;53835;47.984;7.844;2022-07-29T03:10:30;6.83;;;5.10;;
66923;SDS011;53835;47.984;7.844;2022-07-29T03:12:58;5.80;;;4.53;;
66923;SDS011;53835;47.984;7.844;2022-07-29T03:15:25;5.43;;;4.40;;
66923;SDS011;53835;47.984;7.844;2022-07-29T03:17:53;7.50;;;5.37;;
66923;SDS011;53835;47.984;7.844;2022-07-29T03:20:21;5.77;;;5.23;;
66923;SDS011;53835;47.984;7.844;2022-07-29T03:22:49;6.30;;;4.47;;
66923;SDS011;53835;47.984;7.844;2022-07-29T03:25:18;6.63;;;4.97;;
66923;SDS011;53835;47.984;7.844;2022-07-29T03:27:46;6.43;;;5.13;;
66923;SDS011;53835;47.984;7.844;2022-07-29T03:30:13;6.47;;;4.80;;
66923;SDS011;53835;47.984;7.844;2022-07-29T03:32:42;6.47;;;4.80;;
66923;SDS011;53835;47.984;7.844;2022-07-29T03:35:09;6.73;;;5.23;;
66923;SDS011;53835;47.984;7.844;2022-07-29T03:37:36;5.93;;;5.00;;
66923;SDS011;53835;47.984;7.844;2022-07-29T03:40:04;5.20;;;4.70;;
66923;SDS011;53835;47.984;7.844;2022-07-29T03:42:32;6.10;;;4.90;;
66923;SDS011;53835;47.984;7.844;2022-07-29T03:45:06;5.30;;;4.90;;
66923;SDS011;53835;47.984;7.844;2022-07-29T03:47:29;5.27;;;4.73;;
66923;SDS011;53835;47.984;7.844;2022-07-29T03:49:59;6.87;;;4.67;;
66923;SDS011;53835;47.984;7.844;2022-07-29T03:52:26;6.77;;;5.27;;
66923;SDS011;53835;47.984;7.844;2022-07-29T03:54:53;5.80;;;5.20;;
66923;SDS011;53835;47.984;7.844;2022-07-29T03:57:22;8.40;;;5.30;;
66923;SDS011;53835;47.984;7.844;2022-07-29T03:59:50;6.00;;;5.13;;
66923;SDS011;53835;47.984;7.844;2022-07-29T04:02:18;6.37;;;5.00;;
66923;SDS011;53835;47.984;7.844;2022-07-29T04:04:45;6.47;;;4.90;;
66923;SDS011;53835;47.984;7.844;2022-07-29T04:07:13;7.70;;;5.40;;
66923;SDS011;53835;47.984;7.844;2022-07-29T04:09:41;6.00;;;4.87;;
66923;SDS011;53835;47.984;7.844;2022-07-29T04:12:08;5.97;;;5.37;;
66923;SDS011;53835;47.984;7.844;2022-07-29T04:14:36;5.00;;;4.60;;
66923;SDS011;53835;47.984;7.844;2022-07-29T04:17:03;8.30;;;5.43;;
66923;SDS011;53835;47.984;7.844;2022-07-29T04:19:31;5.63;;;4.90;;
66923;SDS011;53835;47.984;7.844;2022-07-29T04:21:59;5.47;;;4.93;;
66923;SDS011;53835;47.984;7.844;2022-07-29T04:24:27;5.37;;;4.70;;
66923;SDS011;53835;47.984;7.844;2022-07-29T04:26:54;7.17;;;5.00;;
66923;SDS011;53835;47.984;7.844;2022-07-29T04:29:21;5.30;;;4.80;;
66923;SDS011;53835;47.984;7.844;2022-07-29T04:31:49;9.17;;;4.43;;
66923;SDS011;53835;47.984;7.844;2022-07-29T04:34:16;4.93;;;4.40;;
66923;SDS011;53835;47.984;7.844;2022-07-29T04:36:43;5.57;;;4.90;;
66923;SDS011;53835;47.984;7.844;2022-07-29T04:39:10;5.67;;;4.23;;
66923;SDS011;53835;47.984;7.844;2022-07-29T04:41:38;5.27;;;4.77;;
66923;SDS011;53835;47.984;7.844;2022-07-29T04:44:05;5.97;;;4.63;;
66923;SDS011;53835;47.984;7.844;2022-07-29T04:46:32;5.33;;;4.53;;
66923;SDS011;53835;47.984;7.844;2022-07-29T04:49:00;5.70;;;5.07;;
66923;SDS011;53835;47.984;7.844;2022-07-29T04:51:27;5.37;;;4.77;;
66923;SDS011;53835;47.984;7.844;2022-07-29T04:53:54;8.70;;;5.03;;
66923;SDS011;53835;47.984;7.844;2022-07-29T04:56:22;6.60;;;4.90;;
66923;SDS011;53835;47.984;7.844;2022-07-29T04:58:49;6.17;;;4.80;;
66923;SDS011;53835;47.984;7.844;2022-07-29T05:01:17;7.43;;;4.60;;
66923;SDS011;53835;47.984;7.844;2022-07-29T05:03:44;5.23;;;4.73;;
66923;SDS011;53835;47.984;7.844;2022-07-29T05:06:12;7.50;;;4.90;;
66923;SDS011;53835;47.984;7.844;2022-07-29T05:08:39;6.77;;;4.93;;
66923;SDS011;53835;47.984;7.844;2022-07-29T05:11:06;5.63;;;4.90;;
66923;SDS011;53835;47.984;7.844;2022-07-29T05:13:33;5.97;;;4.40;;
66923;SDS011;53835;47.984;7.844;2022-07-29T05:16:01;7.23;;;4.90;;
66923;SDS011;53835;47.984;7.844;2022-07-29T05:18:28;8.33;;;5.03;;
66923;SDS011;53835;47.984;7.844;2022-07-29T05:20:55;5.57;;;4.70;;
66923;SDS011;53835;47.984;7.844;2022-07-29T05:23:23;6.70;;;4.53;;
66923;SDS011;53835;47.984;7.844;2022-07-29T05:25:50;7.30;;;4.60;;
66923;SDS011;53835;47.984;7.844;2022-07-29T05:28:17;8.40;;;4.40;;
66923;SDS011;53835;47.984;7.844;2022-07-29T05:30:45;5.23;;;4.73;;
66923;SDS011;53835;47.984;7.844;2022-07-29T05:33:12;6.00;;;4.60;;
66923;SDS011;53835;47.984;7.844;2022-07-29T05:35:39;5.63;;;4.90;;
66923;SDS011;53835;47.984;7.844;2022-07-29T05:38:06;5.77;;;4.67;;
66923;SDS011;53835;47.984;7.844;2022-07-29T05:40:34;5.43;;;4.60;;
66923;SDS011;53835;47.984;7.844;2022-07-29T05:43:01;5.07;;;4.13;;
66923;SDS011;53835;47.984;7.844;2022-07-29T05:45:28;4.77;;;4.27;;
66923;SDS011;53835;47.984;7.844;2022-07-29T05:47:56;7.60;;;4.33;;
66923;SDS011;53835;47.984;7.844;2022-07-29T05:50:23;6.53;;;4.63;;
66923;SDS011;53835;47.984;7.844;2022-07-29T05:52:51;6.50;;;4.43;;
66923;SDS011;53835;47.984;7.844;2022-07-29T05:55:18;6.10;;;4.77;;
66923;SDS011;53835;47.984;7.844;2022-07-29T05:57:45;8.23;;;4.53;;
66923;SDS011;53835;47.984;7.844;2022-07-29T06:00:12;6.67;;;4.93;;
66923;SDS011;53835;47.984;7.844;2022-07-29T06:02:40;5.83;;;4.50;;
66923;SDS011;53835;47.984;7.844;2022-07-29T06:05:07;6.03;;;4.90;;
66923;SDS011;53835;47.984;7.844;2022-07-29T06:07:34;4.83;;;4.43;;
66923;SDS011;53835;47.984;7.844;2022-07-29T06:10:02;5.77;;;4.87;;
66923;SDS011;53835;47.984;7.844;2022-07-29T06:12:29;5.37;;;4.80;;
66923;SDS011;53835;47.984;7.844;2022-07-29T06:14:56;6.63;;;4.80;;
66923;SDS011;53835;47.984;7.844;2022-07-29T06:17:24;6.13;;;4.90;;
66923;SDS011;53835;47.984;7.844;2022-07-29T06:19:51;7.00;;;4.90;;
66923;SDS011;53835;47.984;7.844;2022-07-29T06:22:18;7.27;;;4.77;;
66923;SDS011;53835;47.984;7.844;2022-07-29T06:24:46;7.40;;;4.87;;
66923;SDS011;53835;47.984;7.844;2022-07-29T06:27:13;8.90;;;4.67;;
66923;SDS011;53835;47.984;7.844;2022-07-29T06:29:40;7.03;;;5.20;;
66923;SDS011;53835;47.984;7.844;2022-07-29T06:32:07;8.17;;;5.17;;
66923;SDS011;53835;47.984;7.844;2022-07-29T06:34:35;5.37;;;4.70;;
66923;SDS011;53835;47.984;7.844;2022-07-29T06:37:10;5.53;;;4.40;;
66923;SDS011;53835;47.984;7.844;2022-07-29T06:39:35;5.77;;;4.33;;
66923;SDS011;53835;47.984;7.844;2022-07-29T06:42:05;5.40;;;4.25;;
66923;SDS011;53835;47.984;7.844;2022-07-29T06:44:33;6.00;;;4.10;;
66923;SDS011;53835;47.984;7.844;2022-07-29T06:47:00;7.40;;;4.22;;
66923;SDS011;53835;47.984;7.844;2022-07-29T06:49:27;5.35;;;4.30;;
66923;SDS011;53835;47.984;7.844;2022-07-29T06:51:55;6.03;;;3.92;;
66923;SDS011;53835;47.984;7.844;2022-07-29T06:54:22;5.60;;;4.47;;
66923;SDS011;53835;47.984;7.844;2022-07-29T06:56:50;6.28;;;4.08;;
66923;SDS011;53835;47.984;7.844;2022-07-29T06:59:17;8.75;;;4.12;;
66923;SDS011;53835;47.984;7.844;2022-07-29T07:01:44;9.93;;;4.50;;
66923;SDS011;53835;47.984;7.844;2022-07-29T07:04:12;9.33;;;4.40;;
66923;SDS011;53835;47.984;7.844;2022-07-29T07:06:39;6.50;;;4.20;;
66923;SDS011;53835;47.984;7.844;2022-07-29T07:09:06;6.80;;;3.98;;
66923;SDS011;53835;47.984;7.844;2022-07-29T07:11:34;6.83;;;3.75;;
66923;SDS011;53835;47.984;7.844;2022-07-29T07:14:01;5.20;;;4.20;;
66923;SDS011;53835;47.984;7.844;2022-07-29T07:16:28;7.35;;;4.08;;
66923;SDS011;53835;47.984;7.844;2022-07-29T07:18:56;6.62;;;3.90;;
66923;SDS011;53835;47.984;7.844;2022-07-29T07:21:23;6.83;;;4.10;;
66923;SDS011;53835;47.984;7.844;2022-07-29T07:23:50;6.42;;;3.80;;
66923;SDS011;53835;47.984;7.844;2022-07-29T07:26:17;8.40;;;3.90;;
66923;SDS011;53835;47.984;7.844;2022-07-29T07:28:45;9.23;;;3.70;;
66923;SDS011;53835;47.984;7.844;2022-07-29T07:31:12;5.92;;;3.60;;
66923;SDS011;53835;47.984;7.844;2022-07-29T07:33:40;5.50;;;3.85;;
66923;SDS011;53835;47.984;7.844;2022-07-29T07:36:07;6.75;;;3.90;;
66923;SDS011;53835;47.984;7.844;2022-07-29T07:38:35;4.72;;;3.62;;
66923;SDS011;53835;47.984;7.844;2022-07-29T07:41:02;5.90;;;3.95;;
66923;SDS011;53835;47.984;7.844;2022-07-29T07:43:30;5.72;;;3.75;;
66923;SDS011;53835;47.984;7.844;2022-07-29T07:45:57;4.70;;;3.75;;
66923;SDS011;53835;47.984;7.844;2022-07-29T07:48:24;7.83;;;4.00;;
66923;SDS011;53835;47.984;7.844;2022-07-29T07:50:52;6.45;;;4.12;;
66923;SDS011;53835;47.984;7.844;2022-07-29T07:53:19;12.10;;;3.80;;
66923;SDS011;53835;47.984;7.844;2022-07-29T07:55:46;5.40;;;3.90;;
66923;SDS011;53835;47.984;7.844;2022-07-29T07:58:14;7.78;;;4.05;;
66923;SDS011;53835;47.984;7.844;2022-07-29T08:00:41;7.00;;;3.85;;
66923;SDS011;53835;47.984;7.844;2022-07-29T08:03:08;5.87;;;3.52;;
66923;SDS011;53835;47.984;7.844;2022-07-29T08:05:37;5.80;;;3.85;;
66923;SDS011;53835;47.984;7.844;2022-07-29T08:08:05;8.75;;;4.37;;
66923;SDS011;53835;47.984;7.844;2022-07-29T08:10:33;5.85;;;3.72;;
66923;SDS011;53835;47.984;7.844;2022-07-29T08:13:19;4.78;;;3.80;;
66923;SDS011;53835;47.984;7.844;2022-07-29T08:15:47;8.15;;;3.98;;
66923;SDS011;53835;47.984;7.844;2022-07-29T08:18:16;4.42;;;3.67;;
66923;SDS011;53835;47.984;7.844;2022-07-29T08:20:43;4.83;;;3.50;;
66923;SDS011;53835;47.984;7.844;2022-07-29T08:23:11;4.87;;;3.95;;
66923;SDS011;53835;47.984;7.844;2022-07-29T08:25:38;4.00;;;3.40;;
66923;SDS011;53835;47.984;7.844;2022-07-29T08:28:05;6.05;;;3.83;;
66923;SDS011;53835;47.984;7.844;2022-07-29T08:30:33;8.20;;;3.70;;
66923;SDS011;53835;47.984;7.844;2022-07-29T08:33:01;7.35;;;3.67;;
66923;SDS011;53835;47.984;7.844;2022-07-29T08:35:28;7.78;;;3.58;;
66923;SDS011;53835;47.984;7.844;2022-07-29T08:37:56;9.35;;;3.60;;
66923;SDS011;53835;47.984;7.844;2022-07-29T08:40:23;7.47;;;3.55;;
66923;SDS011;53835;47.984;7.844;2022-07-29T08:42:51;4.47;;;3.27;;
66923;SDS011;53835;47.984;7.844;2022-07-29T08:45:18;5.62;;;3.40;;
66923;SDS011;53835;47.984;7.844;2022-07-29T08:47:45;4.65;;;2.98;;
66923;SDS011;53835;47.984;7.844;2022-07-29T08:50:13;6.28;;;3.58;;
66923;SDS011;53835;47.984;7.844;2022-07-29T08:52:40;7.25;;;3.20;;
66923;SDS011;53835;47.984;7.844;2022-07-29T08:55:08;6.60;;;3.40;;
66923;SDS011;53835;47.984;7.844;2022-07-29T08:57:37;5.37;;;3.40;;
66923;SDS011;53835;47.984;7.844;2022-07-29T09:00:05;3.83;;;3.15;;
66923;SDS011;53835;47.984;7.844;2022-07-29T09:02:35;3.95;;;3.20;;
66923;SDS011;53835;47.984;7.844;2022-07-29T09:05:02;5.28;;;3.30;;
66923;SDS011;53835;47.984;7.844;2022-07-29T09:07:29;6.80;;;3.50;;
66923;SDS011;53835;47.984;7.844;2022-07-29T09:09:56;5.00;;;2.92;;
66923;SDS011;53835;47.984;7.844;2022-07-29T09:12:24;8.75;;;3.20;;
66923;SDS011;53835;47.984;7.844;2022-07-29T09:14:51;7.28;;;3.20;;
66923;SDS011;53835;47.984;7.844;2022-07-29T09:17:38;6.03;;;2.87;;
66923;SDS011;53835;47.984;7.844;2022-07-29T09:19:48;4.70;;;2.60;;
66923;SDS011;53835;47.984;7.844;2022-07-29T09:22:28;4.03;;;2.77;;
66923;SDS011;53835;47.984;7.844;2022-07-29T09:24:45;7.33;;;2.87;;
66923;SDS011;53835;47.984;7.844;2022-07-29T09:29:58;5.05;;;2.87;;
66923;SDS011;53835;47.984;7.844;2022-07-29T09:32:26;4.33;;;2.85;;
66923;SDS011;53835;47.984;7.844;2022-07-29T09:37:39;6.12;;;2.70;;
66923;SDS011;53835;47.984;7.844;2022-07-29T09:40:16;4.78;;;2.67;;
66923;SDS011;53835;47.984;7.844;2022-07-29T09:42:44;4.55;;;3.08;;
66923;SDS011;53835;47.984;7.844;2022-07-29T09:45:12;4.60;;;2.50;;
66923;SDS011;53835;47.984;7.844;2022-07-29T09:47:45;5.17;;;2.67;;
66923;SDS011;53835;47.984;7.844;2022-07-29T09:50:10;5.92;;;3.10;;
66923;SDS011;53835;47.984;7.844;2022-07-29T09:52:51;5.78;;;2.55;;
66923;SDS011;53835;47.984;7.844;2022-07-29T09:55:21;6.50;;;3.55;;
66923;SDS011;53835;47.984;7.844;2022-07-29T09:57:49;5.92;;;3.00;;
66923;SDS011;53835;47.984;7.844;2022-07-29T10:00:19;7.10;;;2.70;;
66923;SDS011;53835;47.984;7.844;2022-07-29T10:02:48;9.88;;;3.08;;
66923;SDS011;53835;47.984;7.844;2022-07-29T10:05:17;9.75;;;2.95;;
66923;SDS011;53835;47.984;7.844;2022-07-29T10:07:50;8.55;;;3.02;;
66923;SDS011;53835;47.984;7.844;2022-07-29T10:10:19;4.70;;;2.90;;
66923;SDS011;53835;47.984;7.844;2022-07-29T10:12:52;6.20;;;2.70;;
66923;SDS011;53835;47.984;7.844;2022-07-29T10:15:16;4.70;;;2.75;;
66923;SDS011;53835;47.984;7.844;2022-07-29T10:17:45;5.33;;;2.77;;
66923;SDS011;53835;47.984;7.844;2022-07-29T10:20:13;7.95;;;3.20;;
66923;SDS011;53835;47.984;7.844;2022-07-29T10:22:41;6.97;;;2.98;;
66923;SDS011;53835;47.984;7.844;2022-07-29T10:25:11;4.45;;;2.83;;
66923;SDS011;53835;47.984;7.844;2022-07-29T10:27:40;7.45;;;2.98;;
66923;SDS011;53835;47.984;7.844;2022-07-29T10:30:09;5.83;;;3.10;;
66923;SDS011;53835;47.984;7.844;2022-07-29T10:43:21;8.73;;;3.00;;
66923;SDS011;53835;47.984;7.844;2022-07-29T10:45:48;3.77;;;2.70;;
66923;SDS011;53835;47.984;7.844;2022-07-29T10:48:16;6.30;;;2.90;;
66923;SDS011;53835;47.984;7.844;2022-07-29T10:50:53;4.62;;;3.00;;
66923;SDS011;53835;47.984;7.844;2022-07-29T10:53:21;4.67;;;3.02;;
66923;SDS011;53835;47.984;7.844;2022-07-29T10:55:50;4.95;;;3.10;;
66923;SDS011;53835;47.984;7.844;2022-07-29T11:00:47;8.25;;;2.87;;
66923;SDS011;53835;47.984;7.844;2022-07-29T11:06:00;4.17;;;2.80;;
66923;SDS011;53835;47.984;7.844;2022-07-29T11:08:28;6.95;;;2.92;;
66923;SDS011;53835;47.984;7.844;2022-07-29T11:11:31;4.70;;;2.90;;
66923;SDS011;53835;47.984;7.844;2022-07-29T11:16:13;5.53;;;3.10;;
66923;SDS011;53835;47.984;7.844;2022-07-29T11:21:35;3.20;;;2.70;;
66923;SDS011;53835;47.984;7.844;2022-07-29T11:24:22;7.35;;;3.20;;
66923;SDS011;53835;47.984;7.844;2022-07-29T11:27:07;7.20;;;3.00;;
66923;SDS011;53835;47.984;7.844;2022-07-29T11:29:39;11.60;;;3.12;;
66923;SDS011;53835;47.984;7.844;2022-07-29T11:32:11;6.92;;;2.90;;
66923;SDS011;53835;47.984;7.844;2022-07-29T11:34:39;4.37;;;2.70;;
66923;SDS011;53835;47.984;7.844;2022-07-29T11:39:41;5.87;;;2.95;;
66923;SDS011;53835;47.984;7.844;2022-07-29T11:44:58;6.80;;;3.08;;
66923;SDS011;53835;47.984;7.844;2022-07-29T11:47:28;4.50;;;2.85;;
66923;SDS011;53835;47.984;7.844;2022-07-29T11:49:56;5.75;;;2.50;;
66923;SDS011;53835;47.984;7.844;2022-07-29T11:52:24;4.90;;;3.05;;
66923;SDS011;53835;47.984;7.844;2022-07-29T11:54:52;4.55;;;2.95;;
66923;SDS011;53835;47.984;7.844;2022-07-29T11:57:21;7.62;;;3.17;;
66923;SDS011;53835;47.984;7.844;2022-07-29T11:59:48;7.37;;;3.08;;
66923;SDS011;53835;47.984;7.844;2022-07-29T12:02:15;4.67;;;3.10;;
66923;SDS011;53835;47.984;7.844;2022-07-29T12:04:49;6.97;;;2.80;;
66923;SDS011;53835;47.984;7.844;2022-07-29T12:07:16;7.83;;;3.12;;
66923;SDS011;53835;47.984;7.844;2022-07-29T12:09:50;7.17;;;2.90;;
66923;SDS011;53835;47.984;7.844;2022-07-29T12:12:18;6.78;;;3.20;;
66923;SDS011;53835;47.984;7.844;2022-07-29T12:14:45;11.33;;;3.12;;
66923;SDS011;53835;47.984;7.844;2022-07-29T12:17:28;6.50;;;3.20;;
66923;SDS011;53835;47.984;7.844;2022-07-29T12:19:56;17.27;;;3.22;;
66923;SDS011;53835;47.984;7.844;2022-07-29T12:22:28;4.17;;;3.10;;
66923;SDS011;53835;47.984;7.844;2022-07-29T12:24:56;5.50;;;3.02;;
66923;SDS011;53835;47.984;7.844;2022-07-29T12:27:25;4.28;;;2.98;;
66923;SDS011;53835;47.984;7.844;2022-07-29T12:29:56;5.47;;;2.98;;
66923;SDS011;53835;47.984;7.844;2022-07-29T12:32:23;7.30;;;3.20;;
66923;SDS011;53835;47.984;7.844;2022-07-29T12:34:50;3.67;;;2.75;;
66923;SDS011;53835;47.984;7.844;2022-07-29T12:37:18;5.75;;;3.00;;
66923;SDS011;53835;47.984;7.844;2022-07-29T12:39:45;3.72;;;3.00;;
66923;SDS011;53835;47.984;7.844;2022-07-29T12:42:13;5.28;;;3.00;;
66923;SDS011;53835;47.984;7.844;2022-07-29T12:44:49;6.22;;;3.10;;
66923;SDS011;53835;47.984;7.844;2022-07-29T12:47:13;5.83;;;2.80;;
66923;SDS011;53835;47.984;7.844;2022-07-29T12:49:40;4.83;;;2.60;;
66923;SDS011;53835;47.984;7.844;2022-07-29T12:52:31;3.30;;;2.60;;
66923;SDS011;53835;47.984;7.844;2022-07-29T12:54:55;4.10;;;2.90;;
66923;SDS011;53835;47.984;7.844;2022-07-29T12:57:22;4.53;;;3.02;;
66923;SDS011;53835;47.984;7.844;2022-07-29T13:00:06;3.55;;;2.80;;
66923;SDS011;53835;47.984;7.844;2022-07-29T13:02:35;4.25;;;2.42;;
66923;SDS011;53835;47.984;7.844;2022-07-29T13:05:03;6.33;;;2.75;;
66923;SDS011;53835;47.984;7.844;2022-07-29T13:07:31;4.20;;;2.65;;
66923;SDS011;53835;47.984;7.844;2022-07-29T13:10:10;10.95;;;2.83;;
66923;SDS011;53835;47.984;7.844;2022-07-29T13:12:38;7.05;;;2.72;;
66923;SDS011;53835;47.984;7.844;2022-07-29T13:15:12;5.15;;;3.12;;
66923;SDS011;53835;47.984;7.844;2022-07-29T13:17:41;9.60;;;2.60;;
66923;SDS011;53835;47.984;7.844;2022-07-29T13:20:10;5.67;;;2.77;;
66923;SDS011;53835;47.984;7.844;2022-07-29T13:22:41;4.53;;;2.60;;
66923;SDS011;53835;47.984;7.844;2022-07-29T13:25:09;9.18;;;3.05;;
66923;SDS011;53835;47.984;7.844;2022-07-29T13:27:37;7.33;;;2.52;;
66923;SDS011;53835;47.984;7.844;2022-07-29T13:30:08;3.10;;;2.35;;
66923;SDS011;53835;47.984;7.844;2022-07-29T13:32:36;4.53;;;2.30;;
66923;SDS011;53835;47.984;7.844;2022-07-29T13:35:04;5.12;;;2.30;;
66923;SDS011;53835;47.984;7.844;2022-07-29T13:37:33;6.12;;;2.40;;
66923;SDS011;53835;47.984;7.844;2022-07-29T13:40:01;6.67;;;2.52;;
66923;SDS011;53835;47.984;7.844;2022-07-29T13:42:29;6.40;;;2.47;;
66923;SDS011;53835;47.984;7.844;2022-07-29T13:44:57;6.72;;;2.40;;
66923;SDS011;53835;47.984;7.844;2022-07-29T13:47:24;5.15;;;2.33;;
66923;SDS011;53835;47.984;7.844;2022-07-29T13:49:52;3.60;;;2.58;;
66923;SDS011;53835;47.984;7.844;2022-07-29T13:52:19;6.17;;;2.42;;
66923;SDS011;53835;47.984;7.844;2022-07-29T13:54:47;5.08;;;2.33;;
66923;SDS011;53835;47.984;7.844;2022-07-29T13:57:14;3.05;;;2.40;;
66923;SDS011;53835;47.984;7.844;2022-07-29T13:59:42;4.10;;;2.40;;
66923;SDS011;53835;47.984;7.844;2022-07-29T14:02:09;8.05;;;2.40;;
66923;SDS011;53835;47.984;7.844;2022-07-29T14:04:37;3.62;;;2.22;;
66923;SDS011;53835;47.984;7.844;2022-07-29T14:07:06;3.65;;;2.40;;
66923;SDS011;53835;47.984;7.844;2022-07-29T14:09:33;4.75;;;2.70;;
66923;SDS011;53835;47.984;7.844;2022-07-29T14:12:00;3.45;;;2.40;;
66923;SDS011;53835;47.984;7.844;2022-07-29T14:14:28;8.43;;;2.65;;
66923;SDS011;53835;47.984;7.844;2022-07-29T14:16:58;5.92;;;2.30;;
66923;SDS011;53835;47.984;7.844;2022-07-29T14:19:25;5.05;;;2.20;;
66923;SDS011;53835;47.984;7.844;2022-07-29T14:21:53;4.08;;;2.67;;
66923;SDS011;53835;47.984;7.844;2022-07-29T14:24:20;6.60;;;2.60;;
66923;SDS011;53835;47.984;7.844;2022-07-29T14:26:47;3.10;;;2.45;;
66923;SDS011;53835;47.984;7.844;2022-07-29T14:29:15;4.47;;;2.33;;
66923;SDS011;53835;47.984;7.844;2022-07-29T14:31:42;3.98;;;2.20;;
66923;SDS011;53835;47.984;7.844;2022-07-29T14:34:10;5.97;;;2.40;;
66923;SDS011;53835;47.984;7.844;2022-07-29T14:36:37;4.20;;;2.37;;
66923;SDS011;53835;47.984;7.844;2022-07-29T14:39:04;3.37;;;2.83;;
66923;SDS011;53835;47.984;7.844;2022-07-29T14:41:31;4.80;;;2.60;;
66923;SDS011;53835;47.984;7.844;2022-07-29T14:43:59;3.47;;;2.15;;
66923;SDS011;53835;47.984;7.844;2022-07-29T14:46:27;5.37;;;2.50;;
66923;SDS011;53835;47.984;7.844;2022-07-29T14:48:54;5.03;;;2.67;;
66923;SDS011;53835;47.984;7.844;2022-07-29T14:51:22;3.67;;;2.10;;
66923;SDS011;53835;47.984;7.844;2022-07-29T14:53:49;6.00;;;2.40;;
66923;SDS011;53835;47.984;7.844;2022-07-29T14:56:16;4.00;;;2.25;;
66923;SDS011;53835;47.984;7.844;2022-07-29T14:58:44;3.62;;;2.20;;
66923;SDS011;53835;47.984;7.844;2022-07-29T15:01:11;7.17;;;2.08;;
66923;SDS011;53835;47.984;7.844;2022-07-29T15:03:38;3.47;;;2.27;;
66923;SDS011;53835;47.984;7.844;2022-07-29T15:06:05;5.40;;;2.02;;
66923;SDS011;53835;47.984;7.844;2022-07-29T15:08:33;3.12;;;2.12;;
66923;SDS011;53835;47.984;7.844;2022-07-29T15:11:00;3.55;;;2.20;;
66923;SDS011;53835;47.984;7.844;2022-07-29T15:13:27;2.98;;;2.08;;
66923;SDS011;53835;47.984;7.844;2022-07-29T15:15:55;3.60;;;2.00;;
66923;SDS011;53835;47.984;7.844;2022-07-29T15:18:23;4.87;;;1.87;;
66923;SDS011;53835;47.984;7.844;2022-07-29T15:20:50;7.70;;;2.45;;
66923;SDS011;53835;47.984;7.844;2022-07-29T15:23:17;3.30;;;1.98;;
66923;SDS011;53835;47.984;7.844;2022-07-29T15:25:44;3.15;;;2.00;;
66923;SDS011;53835;47.984;7.844;2022-07-29T15:28:12;3.77;;;1.95;;
66923;SDS011;53835;47.984;7.844;2022-07-29T15:30:39;6.25;;;2.20;;
66923;SDS011;53835;47.984;7.844;2022-07-29T15:33:07;4.25;;;1.98;;
66923;SDS011;53835;47.984;7.844;2022-07-29T15:35:36;7.03;;;2.15;;
66923;SDS011;53835;47.984;7.844;2022-07-29T15:38:03;3.62;;;1.90;;
66923;SDS011;53835;47.984;7.844;2022-07-29T15:40:31;5.28;;;2.20;;
66923;SDS011;53835;47.984;7.844;2022-07-29T15:42:59;8.05;;;1.95;;
66923;SDS011;53835;47.984;7.844;2022-07-29T15:45:29;6.53;;;2.40;;